Time;durP1;ratioP1;P1;durP2;ratioP2;P2;SDS_P1;SDS_P2;PMS_P1;PMS_P2;Temp;Humidity;BMP_temperature;BMP_pressure;BME280_temperature;BME280_humidity;BME280_pressure;Samples;Min_cycle;Max_cycle;Signal;HPM_P1;HPM_P2
2021/11/21 00:01:09;;;;;;;32.50;29.00;;;5.90;99.90;;;;;;5064114;28;20045;-73
2021/11/21 00:03:35;;;;;;;28.70;25.73;;;5.90;99.90;;;;;;5064755;28;20048;-75
2021/11/21 00:06:01;;;;;;;29.30;25.75;;;5.90;99.90;;;;;;5054135;28;20045;-74
2021/11/21 00:08:28;;;;;;;28.73;25.83;;;5.90;99.90;;;;;;5054025;28;20040;-73
2021/11/21 00:10:54;;;;;;;31.00;27.83;;;5.90;99.90;;;;;;5044710;28;20493;-73
2021/11/21 00:13:20;;;;;;;27.48;24.30;;;5.90;99.90;;;;;;5054537;28;20029;-73
2021/11/21 00:15:46;;;;;;;34.25;30.63;;;5.90;99.90;;;;;;5055429;28;20024;-73
2021/11/21 00:18:13;;;;;;;35.08;31.52;;;5.90;99.90;;;;;;5058236;28;20032;-74
2021/11/21 00:20:40;;;;;;;35.63;31.35;;;5.90;99.90;;;;;;5070628;28;20044;-74
2021/11/21 00:23:08;;;;;;;40.08;33.10;;;5.90;99.90;;;;;;5053900;28;20045;-74
2021/11/21 00:25:36;;;;;;;39.30;35.10;;;5.90;99.90;;;;;;5053410;28;20041;-74
2021/11/21 00:28:02;;;;;;;43.08;38.58;;;6.00;99.90;;;;;;5054453;28;20029;-74
2021/11/21 00:30:33;;;;;;;43.88;39.17;;;6.00;99.90;;;;;;5054230;28;20049;-74
2021/11/21 00:33:00;;;;;;;43.53;38.55;;;6.00;99.90;;;;;;5053756;28;20056;-73
2021/11/21 00:35:26;;;;;;;39.47;35.20;;;6.00;99.90;;;;;;5053339;28;20037;-74
2021/11/21 00:37:52;;;;;;;45.08;37.08;;;5.90;99.90;;;;;;5054012;28;20033;-74
2021/11/21 00:40:20;;;;;;;40.90;36.47;;;5.90;99.90;;;;;;5066952;28;20044;-74
2021/11/21 00:42:46;;;;;;;44.50;38.47;;;5.80;99.90;;;;;;5062387;28;20037;-73
2021/11/21 00:45:13;;;;;;;41.58;37.25;;;5.90;99.90;;;;;;5053731;28;20063;-73
2021/11/21 00:47:41;;;;;;;42.22;35.90;;;5.80;99.90;;;;;;5053594;28;20037;-73
2021/11/21 00:50:09;;;;;;;39.63;32.33;;;5.80;99.90;;;;;;5036474;28;20041;-73
2021/11/21 00:52:37;;;;;;;38.70;32.17;;;5.80;99.90;;;;;;5054045;28;20481;-73
2021/11/21 00:55:10;;;;;;;32.70;29.23;;;5.80;99.90;;;;;;5054059;28;20028;-73
2021/11/21 00:57:40;;;;;;;31.00;27.65;;;5.90;99.90;;;;;;5069436;28;20039;-74
2021/11/21 01:00:10;;;;;;;36.25;28.95;;;5.90;99.90;;;;;;5055406;28;20033;-73
2021/11/21 01:02:40;;;;;;;32.83;27.25;;;5.90;99.90;;;;;;5038670;28;20039;-73
2021/11/21 01:05:09;;;;;;;25.35;19.90;;;5.90;99.90;;;;;;5057651;28;20029;-73
2021/11/21 01:07:37;;;;;;;31.90;25.90;;;5.90;99.90;;;;;;5056752;28;20394;-73
2021/11/21 01:10:09;;;;;;;30.58;26.40;;;5.90;99.90;;;;;;5057585;28;20044;-73
2021/11/21 01:12:35;;;;;;;33.95;24.98;;;5.90;99.90;;;;;;5054742;28;20036;-74
2021/11/21 01:15:04;;;;;;;29.88;26.55;;;5.90;99.90;;;;;;5053714;28;20386;-74
2021/11/21 01:17:30;;;;;;;32.45;29.00;;;5.90;99.90;;;;;;5052922;28;20052;-74
2021/11/21 01:20:00;;;;;;;36.40;29.70;;;6.00;99.90;;;;;;5035490;28;20045;-73
2021/11/21 01:22:28;;;;;;;34.95;29.90;;;6.00;99.90;;;;;;5053226;28;20041;-73
2021/11/21 01:24:55;;;;;;;31.92;29.02;;;6.00;99.90;;;;;;5053701;28;20033;-73
2021/11/21 01:27:22;;;;;;;34.42;30.48;;;6.00;99.90;;;;;;5052874;28;20025;-74
2021/11/21 01:29:49;;;;;;;33.83;29.05;;;6.00;99.90;;;;;;5053147;28;20045;-75
2021/11/21 01:32:15;;;;;;;43.60;30.90;;;5.90;99.90;;;;;;5053390;28;20039;-73
2021/11/21 01:34:42;;;;;;;32.17;29.13;;;6.00;99.90;;;;;;5052115;28;20048;-73
2021/11/21 01:37:08;;;;;;;32.40;28.65;;;5.90;99.90;;;;;;5064579;28;20032;-73
2021/11/21 01:39:34;;;;;;;34.78;29.63;;;5.90;99.90;;;;;;5053207;28;20033;-73
2021/11/21 01:42:01;;;;;;;35.15;29.23;;;6.00;99.90;;;;;;5052597;28;20060;-75
2021/11/21 01:44:27;;;;;;;33.05;29.70;;;6.00;99.90;;;;;;5052522;28;20048;-73
2021/11/21 01:46:53;;;;;;;28.83;26.05;;;6.00;99.90;;;;;;5038803;28;20025;-73
2021/11/21 01:49:20;;;;;;;32.20;28.80;;;6.00;99.90;;;;;;5058621;28;20037;-77
2021/11/21 01:51:49;;;;;;;32.35;29.08;;;6.00;99.90;;;;;;5052703;28;20028;-73
2021/11/21 01:54:18;;;;;;;32.45;27.58;;;6.00;99.90;;;;;;5053149;28;20036;-73
2021/11/21 01:56:46;;;;;;;33.13;28.65;;;5.90;99.90;;;;;;5044340;28;20044;-74
2021/11/21 01:59:13;;;;;;;31.98;28.90;;;5.80;99.90;;;;;;5053619;28;20045;-74
2021/11/21 02:01:39;;;;;;;39.10;28.15;;;5.80;99.90;;;;;;5054989;28;20037;-74
2021/11/21 02:04:05;;;;;;;61.63;46.15;;;5.80;99.90;;;;;;5053445;28;20039;-73
2021/11/21 02:06:32;;;;;;;59.33;52.50;;;5.80;99.90;;;;;;5052245;28;20024;-73
2021/11/21 02:09:02;;;;;;;47.28;40.85;;;5.80;99.90;;;;;;5052330;28;20041;-73
2021/11/21 02:11:28;;;;;;;43.90;38.90;;;5.80;99.90;;;;;;5051498;28;20045;-74
2021/11/21 02:13:55;;;;;;;65.18;55.85;;;5.80;99.90;;;;;;5052772;28;20454;-73
2021/11/21 02:16:25;;;;;;;53.90;44.53;;;5.80;99.90;;;;;;5055350;28;20035;-75
2021/11/21 02:18:51;;;;;;;53.20;47.10;;;5.80;99.90;;;;;;5071127;28;20107;-74
2021/11/21 02:21:19;;;;;;;41.40;32.72;;;5.70;99.90;;;;;;5072601;28;20505;-74
2021/11/21 02:23:47;;;;;;;42.80;36.20;;;5.70;99.90;;;;;;5054598;28;20028;-74
2021/11/21 02:26:15;;;;;;;50.17;44.28;;;5.60;99.90;;;;;;5051975;28;20045;-74
2021/11/21 02:28:42;;;;;;;54.20;46.08;;;5.60;99.90;;;;;;5045972;28;20044;-74
2021/11/21 02:31:09;;;;;;;132.55;110.50;;;5.60;99.90;;;;;;5059741;28;20037;-74
2021/11/21 02:33:36;;;;;;;118.40;99.03;;;5.50;99.90;;;;;;5059436;28;20032;-74
2021/11/21 02:36:05;;;;;;;57.13;47.10;;;5.50;99.90;;;;;;5060785;28;20494;-73
2021/11/21 02:38:32;;;;;;;45.58;41.03;;;5.60;99.90;;;;;;5062918;28;20024;-74
2021/11/21 02:41:01;;;;;;;37.70;33.70;;;5.50;99.90;;;;;;5052009;28;20042;-73
2021/11/21 02:43:27;;;;;;;49.25;38.03;;;5.40;99.90;;;;;;5051929;28;20032;-74
2021/11/21 02:45:56;;;;;;;50.72;40.80;;;5.40;99.90;;;;;;5052047;28;20470;-74
2021/11/21 02:48:25;;;;;;;47.20;39.03;;;5.40;99.90;;;;;;5051847;28;20033;-73
2021/11/21 02:50:53;;;;;;;48.92;39.22;;;5.30;99.90;;;;;;5052131;28;20033;-72
2021/11/21 02:53:23;;;;;;;47.00;41.28;;;5.30;99.90;;;;;;5051952;28;20040;-73
2021/11/21 02:55:56;;;;;;;79.10;64.95;;;5.40;99.90;;;;;;5052138;28;20033;-73
2021/11/21 02:58:23;;;;;;;49.67;40.75;;;5.40;99.90;;;;;;5055572;28;20036;-74
2021/11/21 03:00:50;;;;;;;106.00;80.68;;;5.40;99.90;;;;;;5056957;28;20040;-73
2021/11/21 03:03:16;;;;;;;65.18;46.70;;;5.40;99.90;;;;;;5042396;28;20044;-74
2021/11/21 03:05:43;;;;;;;110.25;84.68;;;5.40;99.90;;;;;;5039107;28;20041;-74
2021/11/21 03:08:09;;;;;;;104.30;82.93;;;5.40;99.90;;;;;;5056109;28;20051;-73
2021/11/21 03:10:35;;;;;;;45.85;38.05;;;5.30;99.90;;;;;;5055664;28;20036;-73
2021/11/21 03:13:04;;;;;;;50.97;36.45;;;5.20;99.90;;;;;;5055655;28;20025;-72
2021/11/21 03:15:32;;;;;;;50.63;44.83;;;5.30;99.90;;;;;;5054857;28;20048;-73
2021/11/21 03:17:59;;;;;;;39.13;34.90;;;5.30;99.90;;;;;;5055286;28;20037;-73
2021/11/21 03:20:29;;;;;;;44.28;39.55;;;5.30;99.90;;;;;;5055394;28;20048;-73
2021/11/21 03:22:58;;;;;;;58.67;44.42;;;5.20;99.90;;;;;;5073621;28;20049;-72
2021/11/21 03:25:25;;;;;;;43.83;38.08;;;5.30;99.90;;;;;;5058249;28;20040;-73
2021/11/21 03:27:51;;;;;;;44.65;35.28;;;5.30;99.90;;;;;;5059010;28;20025;-73
2021/11/21 03:30:21;;;;;;;44.38;36.92;;;5.20;99.90;;;;;;5071615;28;20071;-74
2021/11/21 03:32:49;;;;;;;78.75;64.57;;;5.20;99.90;;;;;;5055489;28;20044;-73
2021/11/21 03:35:16;;;;;;;37.53;33.55;;;5.20;99.90;;;;;;5055515;28;20051;-73
2021/11/21 03:37:42;;;;;;;224.98;183.73;;;5.20;99.90;;;;;;5056697;28;20453;-72
2021/11/21 03:40:11;;;;;;;358.60;318.92;;;5.20;99.90;;;;;;5063739;28;20033;-72
2021/11/21 03:42:38;;;;;;;82.60;56.67;;;5.20;99.90;;;;;;5055150;28;20457;-73
2021/11/21 03:45:08;;;;;;;50.65;45.55;;;5.10;99.90;;;;;;5054938;28;20029;-72
2021/11/21 03:47:35;;;;;;;42.83;32.58;;;5.20;99.90;;;;;;5053974;28;20041;-73
2021/11/21 03:50:02;;;;;;;88.05;63.97;;;5.10;99.90;;;;;;5054079;28;20041;-73
2021/11/21 03:52:28;;;;;;;41.15;36.35;;;5.20;99.90;;;;;;5054259;28;20056;-73
2021/11/21 03:54:55;;;;;;;41.53;34.83;;;5.20;99.90;;;;;;5054641;28;20029;-73
2021/11/21 03:57:21;;;;;;;37.33;33.03;;;5.30;99.90;;;;;;5054416;28;20056;-73
2021/11/21 03:59:47;;;;;;;58.80;49.95;;;5.30;99.90;;;;;;5036929;28;20049;-72
2021/11/21 04:02:14;;;;;;;38.50;34.35;;;5.30;99.90;;;;;;5054829;28;20045;-73
2021/11/21 04:04:40;;;;;;;55.83;46.40;;;5.20;99.90;;;;;;5044003;28;20041;-72
2021/11/21 04:07:07;;;;;;;50.25;39.13;;;5.20;99.90;;;;;;5054818;28;20025;-73
2021/11/21 04:09:33;;;;;;;45.90;40.70;;;5.30;99.90;;;;;;5053830;28;20037;-73
2021/11/21 04:11:59;;;;;;;39.03;34.22;;;5.30;99.90;;;;;;5054459;28;20040;-72
2021/11/21 04:14:25;;;;;;;41.78;33.97;;;5.30;99.90;;;;;;5054715;28;20029;-74
2021/11/21 04:16:51;;;;;;;42.20;37.65;;;5.20;99.90;;;;;;5054540;28;20021;-73
2021/11/21 04:19:17;;;;;;;30.15;26.33;;;5.30;99.90;;;;;;5060444;28;20466;-73
2021/11/21 04:21:44;;;;;;;30.65;27.45;;;5.30;99.90;;;;;;5067234;28;20060;-73
2021/11/21 04:24:12;;;;;;;31.33;27.70;;;5.30;99.90;;;;;;5054419;28;20398;-73
2021/11/21 04:26:40;;;;;;;26.58;23.52;;;5.30;99.90;;;;;;5070716;28;20032;-73
2021/11/21 04:29:07;;;;;;;29.38;24.80;;;5.30;99.90;;;;;;5056389;28;20052;-72
2021/11/21 04:31:33;;;;;;;28.25;25.08;;;5.30;99.90;;;;;;5054991;28;20056;-72
2021/11/21 04:34:00;;;;;;;28.80;25.73;;;5.30;99.90;;;;;;5036528;28;20044;-72
2021/11/21 04:36:26;;;;;;;29.13;25.63;;;5.30;99.90;;;;;;5060672;28;20021;-73
2021/11/21 04:38:52;;;;;;;34.28;30.48;;;5.30;99.90;;;;;;5069661;28;20025;-73
2021/11/21 04:41:18;;;;;;;33.97;28.20;;;5.30;99.90;;;;;;5053908;28;20029;-73
2021/11/21 04:43:45;;;;;;;33.65;29.13;;;5.30;99.90;;;;;;5053640;28;20033;-72
2021/11/21 04:46:12;;;;;;;31.38;25.75;;;5.30;99.90;;;;;;5054357;28;20477;-73
2021/11/21 04:48:39;;;;;;;23.60;21.20;;;5.30;99.90;;;;;;5053911;28;20033;-73
2021/11/21 04:51:05;;;;;;;24.50;21.73;;;5.30;99.90;;;;;;5054269;28;20040;-73
2021/11/21 04:53:31;;;;;;;35.90;29.77;;;5.30;99.90;;;;;;5053508;28;20036;-73
2021/11/21 04:55:58;;;;;;;28.70;21.58;;;5.20;99.90;;;;;;5054184;28;20029;-73
2021/11/21 04:58:24;;;;;;;24.48;22.15;;;5.20;99.90;;;;;;5053628;28;20390;-77
2021/11/21 05:00:50;;;;;;;26.35;22.20;;;5.20;99.90;;;;;;5053827;28;20147;-72
2021/11/21 05:03:16;;;;;;;27.92;25.20;;;5.30;99.90;;;;;;5054120;28;20033;-73
2021/11/21 05:05:42;;;;;;;30.92;27.85;;;5.20;99.90;;;;;;5054978;28;20040;-73
2021/11/21 05:08:10;;;;;;;31.98;25.20;;;5.20;99.90;;;;;;5060970;28;20032;-73
2021/11/21 05:10:36;;;;;;;21.50;19.00;;;5.20;99.90;;;;;;5047982;28;20147;-73
2021/11/21 05:13:02;;;;;;;27.48;22.17;;;5.20;99.90;;;;;;5062957;28;20040;-72
2021/11/21 05:15:28;;;;;;;27.33;21.48;;;5.10;99.90;;;;;;5061680;28;20056;-73
2021/11/21 05:17:55;;;;;;;24.42;21.85;;;5.10;99.90;;;;;;5042095;28;20032;-73
2021/11/21 05:20:21;;;;;;;30.25;25.38;;;5.10;99.90;;;;;;5062011;28;20032;-73
2021/11/21 05:22:48;;;;;;;22.60;20.27;;;5.10;99.90;;;;;;5051920;28;20055;-73
2021/11/21 05:25:15;;;;;;;25.58;21.55;;;5.10;99.90;;;;;;5060148;28;20041;-73
2021/11/21 05:27:47;;;;;;;21.33;19.10;;;5.20;99.90;;;;;;5055645;28;20036;-73
2021/11/21 05:30:17;;;;;;;20.27;16.35;;;5.20;99.90;;;;;;5055712;28;20053;-73
2021/11/21 05:32:43;;;;;;;18.50;16.63;;;5.10;99.90;;;;;;5037210;28;20045;-75
2021/11/21 05:35:10;;;;;;;17.88;16.25;;;5.10;99.90;;;;;;5054382;28;20393;-73
2021/11/21 05:37:37;;;;;;;21.15;16.05;;;5.10;99.90;;;;;;5053255;28;20021;-73
2021/11/21 05:40:08;;;;;;;16.75;14.98;;;5.10;99.90;;;;;;5053234;28;20036;-73
2021/11/21 05:42:34;;;;;;;;;;;5.10;99.90;;;;;;5053122;28;20039;-73
2021/11/21 05:45:01;;;;;;;14.60;13.30;;;5.10;99.90;;;;;;5053144;28;19913;-73
2021/11/21 05:47:28;;;;;;;14.65;13.02;;;5.10;99.90;;;;;;5052698;28;20025;-73
2021/11/21 05:49:54;;;;;;;14.25;12.77;;;5.10;99.90;;;;;;5052849;28;20025;-73
2021/11/21 05:52:20;;;;;;;21.77;16.10;;;5.10;99.90;;;;;;5051785;28;20056;-73
2021/11/21 05:54:47;;;;;;;14.00;12.70;;;5.10;99.90;;;;;;5064184;28;20031;-73
2021/11/21 05:57:13;;;;;;;17.98;14.10;;;5.10;99.90;;;;;;5057199;28;20044;-73
2021/11/21 05:59:40;;;;;;;15.77;14.20;;;5.00;99.90;;;;;;5052368;28;20104;-73
2021/11/21 06:02:07;;;;;;;13.05;11.65;;;5.00;99.90;;;;;;5052547;28;20037;-73
2021/11/21 06:04:33;;;;;;;15.18;11.73;;;4.90;99.90;;;;;;5052226;28;20028;-72
2021/11/21 06:06:59;;;;;;;16.92;11.93;;;4.90;99.90;;;;;;5066315;28;20036;-73
2021/11/21 06:09:27;;;;;;;14.68;11.75;;;5.00;99.90;;;;;;5052593;28;20032;-72
2021/11/21 06:11:54;;;;;;;12.90;11.65;;;4.90;99.90;;;;;;5052655;28;20036;-72
2021/11/21 06:14:21;;;;;;;11.07;9.98;;;4.90;99.90;;;;;;5052616;28;20036;-73
2021/11/21 06:16:48;;;;;;;14.85;13.40;;;4.80;99.90;;;;;;5052019;28;20041;-74
2021/11/21 06:19:14;;;;;;;12.90;11.60;;;4.90;99.90;;;;;;5052481;28;20458;-72
2021/11/21 06:21:41;;;;;;;12.50;10.95;;;4.80;99.90;;;;;;5052131;28;20462;-73
2021/11/21 06:24:07;;;;;;;10.98;9.88;;;4.80;99.90;;;;;;5052646;28;20037;-73
2021/11/21 06:26:34;;;;;;;15.23;10.48;;;4.80;99.90;;;;;;5033995;28;20037;-73
2021/11/21 06:29:01;;;;;;;14.10;12.68;;;4.80;99.90;;;;;;5052646;28;20045;-73
2021/11/21 06:31:27;;;;;;;16.08;13.32;;;4.80;99.90;;;;;;5051990;28;20037;-76
2021/11/21 06:33:56;;;;;;;18.40;13.95;;;4.80;99.90;;;;;;5051871;28;20037;-73
2021/11/21 06:36:22;;;;;;;17.38;15.57;;;4.80;99.90;;;;;;5052359;28;20040;-73
2021/11/21 06:38:49;;;;;;;17.33;14.02;;;4.90;99.90;;;;;;5052118;28;20467;-73
2021/11/21 06:41:15;;;;;;;17.38;13.88;;;4.90;99.90;;;;;;5065334;28;20041;-73
2021/11/21 06:43:41;;;;;;;17.38;14.32;;;4.90;99.90;;;;;;5070160;28;20401;-73
2021/11/21 06:46:07;;;;;;;16.73;15.05;;;4.80;99.90;;;;;;5062758;28;20029;-72
2021/11/21 06:48:35;;;;;;;16.75;15.15;;;4.80;99.90;;;;;;5052081;28;20067;-73
2021/11/21 06:51:04;;;;;;;22.95;15.68;;;4.80;99.90;;;;;;5051964;28;20049;-73
2021/11/21 06:53:31;;;;;;;18.63;16.73;;;4.80;99.90;;;;;;5052053;28;20029;-73
2021/11/21 06:55:57;;;;;;;21.05;18.63;;;4.80;99.90;;;;;;5046047;28;20049;-73
2021/11/21 06:58:25;;;;;;;21.95;17.98;;;4.80;99.90;;;;;;5051717;28;20044;-72
2021/11/21 07:00:52;;;;;;;19.83;17.75;;;4.80;99.90;;;;;;5017280;28;20398;-73
2021/11/21 07:03:18;;;;;;;22.58;19.88;;;4.90;99.90;;;;;;5052140;28;20040;-73
2021/11/21 07:05:45;;;;;;;16.95;15.30;;;4.90;99.90;;;;;;5034257;28;20037;-72
2021/11/21 07:08:11;;;;;;;17.77;15.90;;;4.90;99.90;;;;;;5052220;28;20029;-73
2021/11/21 07:10:38;;;;;;;19.20;14.75;;;4.90;99.90;;;;;;5033788;28;20037;-73
2021/11/21 07:13:04;;;;;;;14.90;13.45;;;5.00;99.90;;;;;;5055925;28;20366;-72
2021/11/21 07:15:31;;;;;;;16.13;14.18;;;5.00;99.90;;;;;;5052997;28;20045;-73
2021/11/21 07:17:57;;;;;;;15.07;13.65;;;5.00;99.90;;;;;;5051859;28;20025;-73
2021/11/21 07:20:23;;;;;;;16.77;13.13;;;5.00;99.90;;;;;;5051980;28;20044;-73
2021/11/21 07:22:52;;;;;;;17.23;14.20;;;5.00;99.90;;;;;;5051434;28;20033;-73
2021/11/21 07:25:21;;;;;;;13.35;11.95;;;5.00;99.90;;;;;;5062779;28;20036;-73
2021/11/21 07:27:49;;;;;;;13.95;12.50;;;5.00;99.90;;;;;;5051620;28;20044;-73
2021/11/21 07:30:18;;;;;;;15.23;12.73;;;5.10;99.90;;;;;;5059583;28;20043;-73
2021/11/21 07:32:45;;;;;;;14.20;12.60;;;5.10;99.90;;;;;;5036210;28;20379;-73
2021/11/21 07:35:16;;;;;;;15.63;13.70;;;5.20;99.90;;;;;;5051539;28;20462;-74
2021/11/21 07:37:42;;;;;;;17.38;14.73;;;5.20;99.90;;;;;;5051801;28;20040;-74
2021/11/21 07:40:10;;;;;;;15.80;14.30;;;5.30;99.90;;;;;;5050840;28;20036;-75
2021/11/21 07:42:37;;;;;;;17.05;14.05;;;5.30;99.90;;;;;;5031769;28;20398;-73
2021/11/21 07:45:05;;;;;;;16.75;13.70;;;5.40;99.90;;;;;;5066010;28;20041;-73
2021/11/21 07:47:32;;;;;;;18.42;13.23;;;5.40;99.90;;;;;;5060880;28;20033;-73
2021/11/21 07:49:58;;;;;;;16.48;14.80;;;5.40;99.90;;;;;;5063441;28;20025;-73
2021/11/21 07:52:25;;;;;;;18.10;16.23;;;5.40;99.90;;;;;;5055146;28;20032;-74
2021/11/21 07:54:53;;;;;;;17.75;15.55;;;5.40;99.90;;;;;;5054758;28;20025;-74
2021/11/21 07:57:19;;;;;;;33.08;21.80;;;5.40;99.90;;;;;;5054631;28;20048;-73
2021/11/21 07:59:46;;;;;;;27.77;24.42;;;5.40;99.90;;;;;;5054562;28;20040;-73
2021/11/21 08:02:12;;;;;;;19.35;16.08;;;5.40;99.90;;;;;;5052004;28;20037;-73
2021/11/21 08:04:39;;;;;;;17.38;14.70;;;5.40;99.90;;;;;;5054202;28;20049;-72
2021/11/21 08:07:08;;;;;;;16.90;14.70;;;5.40;99.90;;;;;;5054457;28;20087;-72
2021/11/21 08:09:35;;;;;;;14.35;12.90;;;5.30;99.90;;;;;;5057610;28;20033;-73
2021/11/21 08:12:02;;;;;;;14.43;12.85;;;5.30;99.90;;;;;;5054700;28;20048;-73
2021/11/21 08:14:28;;;;;;;13.98;12.30;;;5.40;99.90;;;;;;5047500;28;20037;-77
2021/11/21 08:16:55;;;;;;;17.40;13.10;;;5.30;99.90;;;;;;5040495;28;20044;-73
2021/11/21 08:19:21;;;;;;;16.00;13.50;;;5.30;99.90;;;;;;5054859;28;20041;-73
2021/11/21 08:21:47;;;;;;;13.88;12.48;;;5.30;99.90;;;;;;5056810;28;20037;-71
2021/11/21 08:24:13;;;;;;;13.45;12.05;;;5.30;99.90;;;;;;5069517;28;20032;-72
2021/11/21 08:26:40;;;;;;;17.83;13.00;;;5.30;99.90;;;;;;5068624;28;20028;-74
2021/11/21 08:29:06;;;;;;;12.65;11.50;;;5.30;99.90;;;;;;5059076;28;20048;-72
2021/11/21 08:31:32;;;;;;;14.45;11.57;;;5.40;99.90;;;;;;5071112;28;20863;-72
2021/11/21 08:33:58;;;;;;;10.77;9.73;;;5.40;99.90;;;;;;5057185;28;20484;-72
2021/11/21 08:36:25;;;;;;;13.55;10.98;;;5.40;99.90;;;;;;5061284;28;20462;-72
2021/11/21 08:38:51;;;;;;;12.88;10.18;;;5.40;99.90;;;;;;5056520;28;20033;-73
2021/11/21 08:41:18;;;;;;;12.60;10.50;;;5.30;99.90;;;;;;5054145;28;20033;-72
2021/11/21 08:43:44;;;;;;;10.43;9.43;;;5.30;99.90;;;;;;5054196;28;20037;-73
2021/11/21 08:46:10;;;;;;;10.23;9.15;;;5.30;99.90;;;;;;5058089;28;20043;-73
2021/11/21 08:48:36;;;;;;;8.77;7.25;;;5.30;99.90;;;;;;5065962;28;20036;-72
2021/11/21 08:51:03;;;;;;;9.25;7.68;;;5.30;99.90;;;;;;5036059;28;20032;-72
2021/11/21 08:53:30;;;;;;;8.02;7.07;;;5.40;99.90;;;;;;5062600;28;20063;-72
2021/11/21 08:55:56;;;;;;;10.88;9.65;;;5.50;99.90;;;;;;5037586;28;20037;-73
2021/11/21 08:58:22;;;;;;;11.32;8.85;;;5.60;99.90;;;;;;5063990;28;20453;-73
2021/11/21 09:00:49;;;;;;;9.57;8.65;;;5.60;99.90;;;;;;5055352;28;20032;-74
2021/11/21 09:03:15;;;;;;;9.10;7.38;;;5.70;99.90;;;;;;5042367;28;20456;-72
2021/11/21 09:05:41;;;;;;;8.27;7.47;;;5.70;99.90;;;;;;5063674;28;20037;-72
2021/11/21 09:08:07;;;;;;;8.20;7.15;;;5.70;99.90;;;;;;5055220;28;20029;-73
2021/11/21 09:10:34;;;;;;;9.25;6.80;;;5.70;99.90;;;;;;5054053;28;20044;-73
2021/11/21 09:13:01;;;;;;;12.77;7.53;;;5.80;99.90;;;;;;5053076;28;20049;-73
2021/11/21 09:15:27;;;;;;;8.95;7.57;;;5.90;99.90;;;;;;5053620;28;20466;-73
2021/11/21 09:17:54;;;;;;;10.57;7.38;;;5.90;99.90;;;;;;5054811;28;20040;-73
2021/11/21 09:20:23;;;;;;;82.25;59.13;;;5.90;99.90;;;;;;5054226;28;20036;-73
2021/11/21 09:22:50;;;;;;;13.85;12.43;;;6.00;99.90;;;;;;5063391;28;20033;-73
2021/11/21 09:25:17;;;;;;;16.52;14.77;;;6.00;99.70;;;;;;5055809;28;20025;-74
2021/11/21 09:27:43;;;;;;;10.30;8.07;;;6.10;98.70;;;;;;5053866;28;20029;-73
2021/11/21 09:30:10;;;;;;;7.22;6.53;;;6.00;98.80;;;;;;5066629;28;20051;-73
2021/11/21 09:32:39;;;;;;;9.70;7.85;;;6.10;99.20;;;;;;5074798;28;20043;-72
2021/11/21 09:35:08;;;;;;;8.77;7.88;;;6.10;99.00;;;;;;5073414;28;20036;-72
2021/11/21 09:37:34;;;;;;;7.50;6.50;;;6.20;98.80;;;;;;5073040;28;20054;-75
2021/11/21 09:40:01;;;;;;;7.03;6.15;;;6.30;98.00;;;;;;5073461;28;20465;-73
2021/11/21 09:42:27;;;;;;;11.32;10.13;;;6.30;97.60;;;;;;5085946;28;20547;-73
2021/11/21 09:44:54;;;;;;;16.35;10.05;;;6.30;96.90;;;;;;5083555;28;20068;-74
2021/11/21 09:47:20;;;;;;;58.28;40.38;;;6.30;96.90;;;;;;5073930;28;20473;-74
2021/11/21 09:49:46;;;;;;;7.63;6.85;;;6.30;96.20;;;;;;5074204;28;20035;-74
2021/11/21 09:52:15;;;;;;;14.55;11.80;;;6.30;95.70;;;;;;5077320;28;20044;-76
2021/11/21 09:54:42;;;;;;;20.70;18.15;;;6.20;96.20;;;;;;5073228;28;20028;-73
2021/11/21 09:57:08;;;;;;;9.30;7.55;;;6.30;95.80;;;;;;5075375;28;20050;-73
2021/11/21 10:00:04;;;;;;;20.75;15.43;;;6.30;95.80;;;;;;5082967;28;20032;-77
2021/11/21 10:02:42;;;;;;;16.08;10.23;;;6.40;95.90;;;;;;5086532;28;20036;-79
2021/11/21 10:05:15;;;;;;;12.27;9.77;;;6.50;95.60;;;;;;5075132;28;20044;-75
2021/11/21 10:07:41;;;;;;;7.88;6.95;;;6.50;95.30;;;;;;5080285;28;20029;-75
2021/11/21 10:10:13;;;;;;;8.82;6.65;;;6.40;95.20;;;;;;5072194;28;20386;-77
2021/11/21 10:12:41;;;;;;;8.07;6.65;;;6.30;95.20;;;;;;5080498;28;20035;-77
2021/11/21 10:15:09;;;;;;;8.32;6.32;;;6.30;95.70;;;;;;5090336;28;20027;-75
2021/11/21 10:17:37;;;;;;;7.75;6.05;;;6.30;95.40;;;;;;5073853;28;20028;-76
2021/11/21 10:20:08;;;;;;;6.22;5.68;;;6.20;95.60;;;;;;5091673;28;20047;-74
2021/11/21 10:22:47;;;;;;;7.10;6.00;;;6.30;95.60;;;;;;5088568;28;20032;-75
2021/11/21 10:25:14;;;;;;;11.93;7.15;;;6.20;95.30;;;;;;5086867;28;20475;-75
2021/11/21 10:27:44;;;;;;;8.57;6.60;;;6.20;95.30;;;;;;5073116;28;20032;-75
2021/11/21 10:30:11;;;;;;;7.43;6.13;;;6.20;95.30;;;;;;5071397;28;20482;-75
2021/11/21 10:32:49;;;;;;;6.28;5.38;;;6.20;95.50;;;;;;5070681;28;20484;-75
2021/11/21 10:35:18;;;;;;;6.57;5.57;;;6.40;95.00;;;;;;5080758;28;20040;-75
2021/11/21 10:37:46;;;;;;;6.32;5.15;;;6.60;94.50;;;;;;5072813;28;20039;-75
2021/11/21 10:40:17;;;;;;;5.50;4.85;;;6.70;94.20;;;;;;5082375;28;20037;-75
2021/11/21 10:42:46;;;;;;;5.53;4.03;;;6.80;93.30;;;;;;5083039;28;20040;-75
2021/11/21 10:45:14;;;;;;;5.65;4.47;;;6.80;93.10;;;;;;5071698;28;20350;-75
2021/11/21 10:47:55;;;;;;;7.53;5.47;;;6.90;93.10;;;;;;5080574;28;20043;-75
2021/11/21 10:50:25;;;;;;;;;;;6.80;93.10;;;;;;5073268;28;20036;-75
2021/11/21 10:52:52;;;;;;;4.97;4.20;;;6.90;93.20;;;;;;5072829;28;20257;-76
2021/11/21 10:55:18;;;;;;;6.43;4.03;;;6.70;92.60;;;;;;5073435;28;20381;-75
2021/11/21 10:57:44;;;;;;;6.22;4.20;;;6.70;93.00;;;;;;5079411;28;20031;-75
2021/11/21 11:00:26;;;;;;;7.68;5.35;;;6.70;93.20;;;;;;5077046;28;20372;-74
2021/11/21 11:02:53;;;;;;;3.90;3.50;;;6.70;93.00;;;;;;5074909;28;20024;-75
2021/11/21 11:05:21;;;;;;;6.57;4.68;;;6.70;92.90;;;;;;5079728;28;20401;-75
2021/11/21 11:07:47;;;;;;;6.07;5.07;;;6.70;93.40;;;;;;5075390;28;20040;-75
2021/11/21 11:10:26;;;;;;;5.43;3.85;;;6.70;93.50;;;;;;5072846;28;20389;-74
2021/11/21 11:12:59;;;;;;;4.40;3.40;;;6.70;93.20;;;;;;5077184;28;20510;-75
2021/11/21 11:15:27;;;;;;;5.47;3.72;;;6.70;93.40;;;;;;5072345;28;20039;-75
2021/11/21 11:17:53;;;;;;;4.38;3.28;;;6.70;93.80;;;;;;5087399;28;20309;-74
2021/11/21 11:20:21;;;;;;;5.22;3.65;;;6.80;93.50;;;;;;5085080;28;20044;-75
2021/11/21 11:22:48;;;;;;;3.42;2.78;;;6.80;93.30;;;;;;5101951;28;20043;-75
2021/11/21 11:25:25;;;;;;;3.53;3.22;;;6.80;93.60;;;;;;5093513;28;20037;-75
2021/11/21 11:28:14;;;;;;;4.13;3.53;;;6.80;93.60;;;;;;5091413;28;20036;-75
2021/11/21 11:30:41;;;;;;;6.28;3.78;;;6.80;93.70;;;;;;5057768;28;20057;-75
2021/11/21 11:33:12;;;;;;;6.82;4.88;;;6.70;93.60;;;;;;5056405;28;20529;-76
2021/11/21 11:35:39;;;;;;;;;;;6.70;93.80;;;;;;5057438;28;20037;-75
2021/11/21 11:38:13;;;;;;;7.43;3.60;;;6.60;93.60;;;;;;5059502;28;19912;-75
2021/11/21 11:40:49;;;;;;;4.13;3.25;;;6.60;94.00;;;;;;5053887;28;20393;-79
2021/11/21 11:43:15;;;;;;;5.00;3.95;;;6.70;94.20;;;;;;5053488;28;20028;-74
2021/11/21 11:45:57;;;;;;;4.57;3.45;;;6.70;94.00;;;;;;5058945;28;20041;-75
2021/11/21 11:48:32;;;;;;;4.55;4.15;;;6.70;94.10;;;;;;5032629;28;20032;-76
2021/11/21 11:51:02;;;;;;;3.95;3.53;;;6.70;94.00;;;;;;5061843;28;20655;-75
2021/11/21 11:53:36;;;;;;;193.13;133.45;;;6.60;94.30;;;;;;5042446;28;20042;-75
2021/11/21 11:56:27;;;;;;;22.13;16.42;;;6.60;94.30;;;;;;5044283;28;20037;-75
2021/11/21 11:59:02;;;;;;;40.15;30.58;;;6.70;94.40;;;;;;5054869;28;20025;-75
2021/11/21 12:01:32;;;;;;;8.35;5.70;;;6.70;94.50;;;;;;5040823;28;20052;-75
2021/11/21 12:03:59;;;;;;;6.80;5.68;;;6.70;94.00;;;;;;5063431;28;20036;-75
2021/11/21 12:06:49;;;;;;;6.30;5.20;;;6.60;94.50;;;;;;5048227;28;20033;-75
2021/11/21 12:09:25;;;;;;;6.85;6.03;;;6.50;94.50;;;;;;5054680;28;20048;-74
2021/11/21 12:12:09;;;;;;;11.43;9.88;;;6.50;95.10;;;;;;5054190;28;20053;-75
2021/11/21 12:14:39;;;;;;;15.30;11.20;;;6.60;94.60;;;;;;5068475;28;20037;-77
2021/11/21 12:17:19;;;;;;;10.40;7.10;;;6.60;94.60;;;;;;5065253;28;20485;-75
2021/11/21 12:20:00;;;;;;;9.95;9.02;;;6.70;94.70;;;;;;5062978;28;20060;-75
2021/11/21 12:22:29;;;;;;;11.23;9.25;;;6.90;94.50;;;;;;5063867;28;20041;-74
2021/11/21 12:24:57;;;;;;;13.70;9.88;;;7.10;94.30;;;;;;5068954;28;20055;-75
2021/11/21 12:27:27;;;;;;;12.77;10.55;;;7.20;93.70;;;;;;5065706;28;20047;-75
2021/11/21 12:30:09;;;;;;;7.15;6.45;;;7.10;93.40;;;;;;5066097;28;20049;-75
2021/11/21 12:32:57;;;;;;;9.20;5.35;;;7.10;93.60;;;;;;5074932;28;20028;-75
2021/11/21 12:35:24;;;;;;;7.97;6.40;;;7.30;94.10;;;;;;5039648;28;20037;-72
2021/11/21 12:37:52;;;;;;;7.55;5.47;;;7.40;93.30;;;;;;5057457;28;20025;-73
2021/11/21 12:40:35;;;;;;;7.03;5.05;;;7.40;93.00;;;;;;5038235;28;20051;-72
2021/11/21 12:43:09;;;;;;;7.60;6.65;;;7.30;93.60;;;;;;5056991;28;20033;-73
2021/11/21 12:45:40;;;;;;;6.13;5.53;;;7.30;93.40;;;;;;5052817;28;20041;-74
2021/11/21 12:48:09;;;;;;;12.48;9.68;;;7.00;93.60;;;;;;5038111;28;20470;-72